sensor_id;sensor_type;location;lat;lon;timestamp;pressure;altitude;pressure_sealevel;temperature;humidity
61484;BME280;47349;55.640;37.692;2023-01-29T00:02:03;99445.03;;;-2.09;100.00
61484;BME280;47349;55.640;37.692;2023-01-29T00:04:31;99446.53;;;-2.04;100.00
61484;BME280;47349;55.640;37.692;2023-01-29T00:06:58;99444.66;;;-2.02;100.00
61484;BME280;47349;55.640;37.692;2023-01-29T00:09:27;99439.94;;;-1.97;100.00
61484;BME280;47349;55.640;37.692;2023-01-29T00:11:54;99444.22;;;-1.96;100.00
61484;BME280;47349;55.640;37.692;2023-01-29T00:14:22;99442.31;;;-1.94;100.00
61484;BME280;47349;55.640;37.692;2023-01-29T00:16:49;99441.59;;;-1.96;100.00
61484;BME280;47349;55.640;37.692;2023-01-29T00:19:16;99447.06;;;-1.99;100.00
61484;BME280;47349;55.640;37.692;2023-01-29T00:21:46;99446.75;;;-2.08;100.00
61484;BME280;47349;55.640;37.692;2023-01-29T00:24:13;99444.94;;;-2.07;100.00
61484;BME280;47349;55.640;37.692;2023-01-29T00:26:40;99438.94;;;-2.09;100.00
61484;BME280;47349;55.640;37.692;2023-01-29T00:29:08;99438.09;;;-2.10;100.00
61484;BME280;47349;55.640;37.692;2023-01-29T00:31:35;99427.41;;;-2.07;100.00
61484;BME280;47349;55.640;37.692;2023-01-29T00:34:02;99436.00;;;-2.04;100.00
61484;BME280;47349;55.640;37.692;2023-01-29T00:36:29;99429.31;;;-1.96;100.00
61484;BME280;47349;55.640;37.692;2023-01-29T00:38:57;99429.31;;;-1.96;100.00
61484;BME280;47349;55.640;37.692;2023-01-29T00:41:26;99424.16;;;-1.97;100.00
61484;BME280;47349;55.640;37.692;2023-01-29T00:44:12;99414.28;;;-1.94;99.78
61484;BME280;47349;55.640;37.692;2023-01-29T00:46:58;99420.41;;;-1.93;99.03
61484;BME280;47349;55.640;37.692;2023-01-29T00:49:25;99412.91;;;-1.99;99.26
61484;BME280;47349;55.640;37.692;2023-01-29T00:51:52;99416.59;;;-2.02;98.85
61484;BME280;47349;55.640;37.692;2023-01-29T00:54:38;99401.69;;;-2.01;98.72
61484;BME280;47349;55.640;37.692;2023-01-29T00:57:05;99407.25;;;-2.06;98.92
61484;BME280;47349;55.640;37.692;2023-01-29T00:59:32;99412.31;;;-2.03;98.22
61484;BME280;47349;55.640;37.692;2023-01-29T01:01:59;99403.56;;;-2.03;98.46
61484;BME280;47349;55.640;37.692;2023-01-29T01:04:45;99405.88;;;-2.12;97.17
61484;BME280;47349;55.640;37.692;2023-01-29T01:07:12;99410.38;;;-2.14;97.40
61484;BME280;47349;55.640;37.692;2023-01-29T01:09:37;99413.53;;;-2.09;97.69
61484;BME280;47349;55.640;37.692;2023-01-29T01:12:23;99408.28;;;-2.21;97.06
61484;BME280;47349;55.640;37.692;2023-01-29T01:14:50;99405.03;;;-2.12;98.15
61484;BME280;47349;55.640;37.692;2023-01-29T01:17:17;99410.91;;;-2.09;98.70
61484;BME280;47349;55.640;37.692;2023-01-29T01:19:44;99404.94;;;-2.11;97.64
61484;BME280;47349;55.640;37.692;2023-01-29T01:22:11;99406.72;;;-2.11;97.43
61484;BME280;47349;55.640;37.692;2023-01-29T01:24:38;99401.75;;;-2.16;97.18
61484;BME280;47349;55.640;37.692;2023-01-29T01:27:06;99409.09;;;-2.21;97.67
61484;BME280;47349;55.640;37.692;2023-01-29T01:29:33;99408.03;;;-2.31;97.15
61484;BME280;47349;55.640;37.692;2023-01-29T01:32:00;99412.75;;;-2.36;97.26
61484;BME280;47349;55.640;37.692;2023-01-29T01:34:27;99411.81;;;-2.35;97.34
61484;BME280;47349;55.640;37.692;2023-01-29T01:36:54;99407.38;;;-2.35;97.75
61484;BME280;47349;55.640;37.692;2023-01-29T01:39:24;99403.38;;;-2.40;97.49
61484;BME280;47349;55.640;37.692;2023-01-29T01:41:52;99406.75;;;-2.38;97.09
61484;BME280;47349;55.640;37.692;2023-01-29T01:47:05;99403.44;;;-2.54;96.19
61484;BME280;47349;55.640;37.692;2023-01-29T01:49:32;99414.72;;;-2.94;97.05
61484;BME280;47349;55.640;37.692;2023-01-29T01:51:59;99403.19;;;-2.91;98.90
61484;BME280;47349;55.640;37.692;2023-01-29T01:54:27;99408.63;;;-2.94;98.45
61484;BME280;47349;55.640;37.692;2023-01-29T01:57:06;99399.69;;;-3.04;99.27
61484;BME280;47349;55.640;37.692;2023-01-29T01:59:42;99407.06;;;-3.11;99.40
61484;BME280;47349;55.640;37.692;2023-01-29T02:02:12;99392.97;;;-3.37;98.31
61484;BME280;47349;55.640;37.692;2023-01-29T02:04:58;99400.63;;;-3.34;98.75
61484;BME280;47349;55.640;37.692;2023-01-29T02:07:45;99400.84;;;-3.37;99.00
61484;BME280;47349;55.640;37.692;2023-01-29T02:10:34;99389.69;;;-3.41;98.45
61484;BME280;47349;55.640;37.692;2023-01-29T02:13:04;99394.47;;;-3.33;99.30
61484;BME280;47349;55.640;37.692;2023-01-29T02:15:32;99387.78;;;-3.24;99.45
61484;BME280;47349;55.640;37.692;2023-01-29T02:18:01;99380.41;;;-3.18;98.17
61484;BME280;47349;55.640;37.692;2023-01-29T02:20:29;99369.13;;;-3.05;98.01
61484;BME280;47349;55.640;37.692;2023-01-29T02:23:13;99369.50;;;-2.97;97.61
61484;BME280;47349;55.640;37.692;2023-01-29T02:26:06;99371.94;;;-2.94;95.28
61484;BME280;47349;55.640;37.692;2023-01-29T02:36:01;99358.28;;;-2.99;92.42
61484;BME280;47349;55.640;37.692;2023-01-29T02:41:02;99346.63;;;-2.95;92.46
61484;BME280;47349;55.640;37.692;2023-01-29T02:43:35;99341.94;;;-2.90;92.83
61484;BME280;47349;55.640;37.692;2023-01-29T02:48:38;99336.50;;;-2.87;91.64
61484;BME280;47349;55.640;37.692;2023-01-29T02:51:13;99332.94;;;-2.86;91.23
61484;BME280;47349;55.640;37.692;2023-01-29T02:56:15;99330.94;;;-2.82;91.03
61484;BME280;47349;55.640;37.692;2023-01-29T02:58:45;99320.56;;;-2.84;90.40
61484;BME280;47349;55.640;37.692;2023-01-29T03:01:16;99320.34;;;-2.81;89.83
61484;BME280;47349;55.640;37.692;2023-01-29T03:03:50;99316.91;;;-2.81;91.08
61484;BME280;47349;55.640;37.692;2023-01-29T03:08:58;99316.00;;;-2.68;90.93
61484;BME280;47349;55.640;37.692;2023-01-29T03:11:27;99314.84;;;-2.64;90.87
61484;BME280;47349;55.640;37.692;2023-01-29T03:13:57;99306.78;;;-2.61;90.38
61484;BME280;47349;55.640;37.692;2023-01-29T03:16:37;99301.31;;;-2.58;90.87
61484;BME280;47349;55.640;37.692;2023-01-29T03:19:07;99304.28;;;-2.49;90.25
61484;BME280;47349;55.640;37.692;2023-01-29T03:21:37;99298.09;;;-2.48;89.68
61484;BME280;47349;55.640;37.692;2023-01-29T03:24:49;99292.00;;;-2.49;88.48
61484;BME280;47349;55.640;37.692;2023-01-29T03:27:49;99281.94;;;-2.55;88.42
61484;BME280;47349;55.640;37.692;2023-01-29T03:30:43;99288.00;;;-2.54;88.87
61484;BME280;47349;55.640;37.692;2023-01-29T03:36:16;99279.38;;;-2.56;87.90
61484;BME280;47349;55.640;37.692;2023-01-29T03:38:45;99275.50;;;-2.64;87.35
61484;BME280;47349;55.640;37.692;2023-01-29T03:41:19;99265.31;;;-2.68;88.30
61484;BME280;47349;55.640;37.692;2023-01-29T03:43:59;99266.16;;;-2.68;87.42
61484;BME280;47349;55.640;37.692;2023-01-29T03:46:37;99260.72;;;-2.65;88.44
61484;BME280;47349;55.640;37.692;2023-01-29T03:49:24;99248.00;;;-2.58;89.00
61484;BME280;47349;55.640;37.692;2023-01-29T03:52:02;99260.09;;;-2.55;87.18
61484;BME280;47349;55.640;37.692;2023-01-29T03:57:08;99237.09;;;-2.52;87.71
61484;BME280;47349;55.640;37.692;2023-01-29T03:59:53;99242.25;;;-2.50;87.61
61484;BME280;47349;55.640;37.692;2023-01-29T04:02:42;99241.50;;;-2.52;87.25
61484;BME280;47349;55.640;37.692;2023-01-29T04:05:16;99234.06;;;-2.59;85.95
61484;BME280;47349;55.640;37.692;2023-01-29T04:08:01;99226.38;;;-2.62;86.00
61484;BME280;47349;55.640;37.692;2023-01-29T04:10:30;99225.47;;;-2.61;86.11
61484;BME280;47349;55.640;37.692;2023-01-29T04:13:04;99220.72;;;-2.68;85.38
61484;BME280;47349;55.640;37.692;2023-01-29T04:15:33;99223.34;;;-2.68;85.23
61484;BME280;47349;55.640;37.692;2023-01-29T04:18:03;99221.44;;;-2.66;85.54
61484;BME280;47349;55.640;37.692;2023-01-29T04:20:54;99209.41;;;-2.56;86.41
61484;BME280;47349;55.640;37.692;2023-01-29T04:23:22;99204.56;;;-2.49;85.62
61484;BME280;47349;55.640;37.692;2023-01-29T04:28:45;99212.78;;;-2.41;86.47
61484;BME280;47349;55.640;37.692;2023-01-29T04:31:16;99214.44;;;-2.40;86.34
61484;BME280;47349;55.640;37.692;2023-01-29T04:34:02;99208.34;;;-2.41;86.17
61484;BME280;47349;55.640;37.692;2023-01-29T04:36:37;99205.22;;;-2.46;86.03
61484;BME280;47349;55.640;37.692;2023-01-29T04:39:30;99209.19;;;-2.40;87.01
61484;BME280;47349;55.640;37.692;2023-01-29T04:41:58;99207.59;;;-2.43;85.91
61484;BME280;47349;55.640;37.692;2023-01-29T04:44:46;99204.38;;;-2.46;85.77
61484;BME280;47349;55.640;37.692;2023-01-29T04:50:16;99192.41;;;-2.50;85.76
61484;BME280;47349;55.640;37.692;2023-01-29T04:52:54;99197.75;;;-2.52;85.44
61484;BME280;47349;55.640;37.692;2023-01-29T04:55:32;99193.03;;;-2.60;85.44
61484;BME280;47349;55.640;37.692;2023-01-29T05:00:34;99202.78;;;-2.62;86.33
61484;BME280;47349;55.640;37.692;2023-01-29T05:03:02;99201.22;;;-2.64;86.94
61484;BME280;47349;55.640;37.692;2023-01-29T05:05:31;99188.94;;;-2.64;85.58
61484;BME280;47349;55.640;37.692;2023-01-29T05:07:59;99190.41;;;-2.60;86.03
61484;BME280;47349;55.640;37.692;2023-01-29T05:10:25;99180.22;;;-2.64;84.99
61484;BME280;47349;55.640;37.692;2023-01-29T05:12:57;99179.16;;;-2.62;85.73
61484;BME280;47349;55.640;37.692;2023-01-29T05:15:28;99185.28;;;-2.61;86.12
61484;BME280;47349;55.640;37.692;2023-01-29T05:17:57;99188.94;;;-2.64;85.24
61484;BME280;47349;55.640;37.692;2023-01-29T05:20:32;99182.97;;;-2.66;85.13
61484;BME280;47349;55.640;37.692;2023-01-29T05:22:59;99186.31;;;-2.64;85.71
61484;BME280;47349;55.640;37.692;2023-01-29T05:25:28;99186.19;;;-2.62;85.70
61484;BME280;47349;55.640;37.692;2023-01-29T05:27:55;99188.75;;;-2.61;86.47
61484;BME280;47349;55.640;37.692;2023-01-29T05:30:33;99198.28;;;-2.60;86.12
61484;BME280;47349;55.640;37.692;2023-01-29T05:33:02;99188.44;;;-2.56;87.73
61484;BME280;47349;55.640;37.692;2023-01-29T05:35:29;99192.41;;;-2.50;88.13
61484;BME280;47349;55.640;37.692;2023-01-29T05:37:57;99186.31;;;-2.51;87.98
61484;BME280;47349;55.640;37.692;2023-01-29T05:40:24;99195.97;;;-2.51;88.08
61484;BME280;47349;55.640;37.692;2023-01-29T05:42:51;99186.09;;;-2.48;87.70
61484;BME280;47349;55.640;37.692;2023-01-29T05:45:18;99191.03;;;-2.43;88.68
61484;BME280;47349;55.640;37.692;2023-01-29T05:47:45;99189.03;;;-2.40;88.26
61484;BME280;47349;55.640;37.692;2023-01-29T05:50:13;99184.63;;;-2.39;87.70
61484;BME280;47349;55.640;37.692;2023-01-29T05:52:41;99185.47;;;-2.39;87.83
61484;BME280;47349;55.640;37.692;2023-01-29T05:55:19;99187.78;;;-2.47;87.43
61484;BME280;47349;55.640;37.692;2023-01-29T05:57:46;99189.88;;;-2.52;87.21
61484;BME280;47349;55.640;37.692;2023-01-29T06:00:13;99198.91;;;-2.56;87.11
61484;BME280;47349;55.640;37.692;2023-01-29T06:02:41;99184.03;;;-2.55;86.45
61484;BME280;47349;55.640;37.692;2023-01-29T06:05:12;99189.66;;;-2.62;86.63
61484;BME280;47349;55.640;37.692;2023-01-29T06:07:39;99193.69;;;-2.56;87.94
61484;BME280;47349;55.640;37.692;2023-01-29T06:10:12;99185.88;;;-2.58;87.47
61484;BME280;47349;55.640;37.692;2023-01-29T06:12:41;99194.72;;;-2.59;87.48
61484;BME280;47349;55.640;37.692;2023-01-29T06:15:12;99200.38;;;-2.65;86.66
61484;BME280;47349;55.640;37.692;2023-01-29T06:17:46;99193.66;;;-2.69;86.70
61484;BME280;47349;55.640;37.692;2023-01-29T06:20:14;99201.94;;;-2.75;86.60
61484;BME280;47349;55.640;37.692;2023-01-29T06:22:54;99197.00;;;-2.79;86.95
61484;BME280;47349;55.640;37.692;2023-01-29T06:25:21;99197.41;;;-2.86;87.20
61484;BME280;47349;55.640;37.692;2023-01-29T06:27:49;99191.75;;;-2.92;87.39
61484;BME280;47349;55.640;37.692;2023-01-29T06:30:16;99188.41;;;-2.94;87.48
61484;BME280;47349;55.640;37.692;2023-01-29T06:32:45;99193.03;;;-2.85;88.59
61484;BME280;47349;55.640;37.692;2023-01-29T06:35:12;99182.53;;;-2.85;88.01
61484;BME280;47349;55.640;37.692;2023-01-29T06:37:39;99185.69;;;-2.80;88.48
61484;BME280;47349;55.640;37.692;2023-01-29T06:40:08;99176.88;;;-2.79;88.59
61484;BME280;47349;55.640;37.692;2023-01-29T06:42:35;99172.25;;;-2.75;87.79
61484;BME280;47349;55.640;37.692;2023-01-29T06:45:16;99175.41;;;-2.70;87.73
61484;BME280;47349;55.640;37.692;2023-01-29T06:47:45;99171.00;;;-2.70;87.52
61484;BME280;47349;55.640;37.692;2023-01-29T06:50:12;99175.28;;;-2.69;87.10
61484;BME280;47349;55.640;37.692;2023-01-29T06:52:40;99173.19;;;-2.64;88.18
61484;BME280;47349;55.640;37.692;2023-01-29T06:55:07;99177.28;;;-2.60;87.85
61484;BME280;47349;55.640;37.692;2023-01-29T06:57:34;99173.72;;;-2.59;87.54
61484;BME280;47349;55.640;37.692;2023-01-29T07:00:02;99169.19;;;-2.56;87.76
61484;BME280;47349;55.640;37.692;2023-01-29T07:02:29;99164.91;;;-2.58;87.87
61484;BME280;47349;55.640;37.692;2023-01-29T07:04:56;99161.13;;;-2.53;87.64
61484;BME280;47349;55.640;37.692;2023-01-29T07:07:23;99152.41;;;-2.54;86.90
61484;BME280;47349;55.640;37.692;2023-01-29T07:09:50;99157.78;;;-2.55;87.15
61484;BME280;47349;55.640;37.692;2023-01-29T07:12:18;99144.88;;;-2.59;86.63
61484;BME280;47349;55.640;37.692;2023-01-29T07:14:45;99145.28;;;-2.65;87.19
61484;BME280;47349;55.640;37.692;2023-01-29T07:17:12;99129.25;;;-2.60;87.14
61484;BME280;47349;55.640;37.692;2023-01-29T07:19:40;99133.84;;;-2.51;86.86
61484;BME280;47349;55.640;37.692;2023-01-29T07:22:07;99149.69;;;-2.52;86.92
61484;BME280;47349;55.640;37.692;2023-01-29T07:24:34;99151.47;;;-2.53;86.63
61484;BME280;47349;55.640;37.692;2023-01-29T07:27:01;99145.06;;;-2.62;86.06
61484;BME280;47349;55.640;37.692;2023-01-29T07:29:28;99147.38;;;-2.57;86.64
61484;BME280;47349;55.640;37.692;2023-01-29T07:32:16;99146.44;;;-2.56;86.94
61484;BME280;47349;55.640;37.692;2023-01-29T07:34:43;99147.88;;;-2.52;86.62
61484;BME280;47349;55.640;37.692;2023-01-29T07:37:10;99144.34;;;-2.51;86.88
61484;BME280;47349;55.640;37.692;2023-01-29T07:39:37;99131.75;;;-2.59;86.21
61484;BME280;47349;55.640;37.692;2023-01-29T07:42:04;99143.50;;;-2.51;86.18
61484;BME280;47349;55.640;37.692;2023-01-29T07:44:31;99138.59;;;-2.56;86.04
61484;BME280;47349;55.640;37.692;2023-01-29T07:46:58;99139.31;;;-2.54;85.84
61484;BME280;47349;55.640;37.692;2023-01-29T07:49:25;99138.34;;;-2.53;86.31
61484;BME280;47349;55.640;37.692;2023-01-29T07:51:53;99145.38;;;-2.53;86.11
61484;BME280;47349;55.640;37.692;2023-01-29T07:54:20;99143.72;;;-2.54;86.54
61484;BME280;47349;55.640;37.692;2023-01-29T07:56:47;99141.09;;;-2.54;85.39
61484;BME280;47349;55.640;37.692;2023-01-29T07:59:17;99142.56;;;-2.50;86.59
61484;BME280;47349;55.640;37.692;2023-01-29T08:01:44;99134.44;;;-2.47;86.37
61484;BME280;47349;55.640;37.692;2023-01-29T08:04:11;99125.09;;;-2.39;86.82
61484;BME280;47349;55.640;37.692;2023-01-29T08:06:39;99115.34;;;-2.37;86.51
61484;BME280;47349;55.640;37.692;2023-01-29T08:09:06;99115.03;;;-2.32;85.59
61484;BME280;47349;55.640;37.692;2023-01-29T08:11:34;99114.91;;;-2.30;85.94
61484;BME280;47349;55.640;37.692;2023-01-29T08:14:01;99110.81;;;-2.22;86.06
61484;BME280;47349;55.640;37.692;2023-01-29T08:16:28;99110.50;;;-2.30;84.67
61484;BME280;47349;55.640;37.692;2023-01-29T08:18:56;99111.97;;;-2.26;84.60
61484;BME280;47349;55.640;37.692;2023-01-29T08:21:23;99106.91;;;-2.16;84.89
61484;BME280;47349;55.640;37.692;2023-01-29T08:23:50;99099.09;;;-2.05;83.99
61484;BME280;47349;55.640;37.692;2023-01-29T08:26:17;99100.00;;;-1.93;84.17
61484;BME280;47349;55.640;37.692;2023-01-29T08:28:44;99090.22;;;-1.91;83.25
61484;BME280;47349;55.640;37.692;2023-01-29T08:31:12;99082.00;;;-1.87;83.26
61484;BME280;47349;55.640;37.692;2023-01-29T08:33:41;99081.16;;;-1.87;82.84
61484;BME280;47349;55.640;37.692;2023-01-29T08:36:13;99089.38;;;-1.92;82.92
61484;BME280;47349;55.640;37.692;2023-01-29T08:38:56;99080.03;;;-1.96;83.08
61484;BME280;47349;55.640;37.692;2023-01-29T08:41:23;99089.50;;;-1.93;82.54
61484;BME280;47349;55.640;37.692;2023-01-29T08:43:53;99088.22;;;-1.88;83.07
61484;BME280;47349;55.640;37.692;2023-01-29T08:46:31;99079.03;;;-1.82;82.84
61484;BME280;47349;55.640;37.692;2023-01-29T08:49:01;99084.03;;;-1.79;82.15
61484;BME280;47349;55.640;37.692;2023-01-29T08:51:30;99080.25;;;-1.75;82.18
61484;BME280;47349;55.640;37.692;2023-01-29T08:53:57;99088.03;;;-1.73;83.02
61484;BME280;47349;55.640;37.692;2023-01-29T08:56:25;99085.00;;;-1.80;82.44
61484;BME280;47349;55.640;37.692;2023-01-29T08:58:52;99085.97;;;-1.81;82.66
61484;BME280;47349;55.640;37.692;2023-01-29T09:01:20;99073.28;;;-1.87;82.10
61484;BME280;47349;55.640;37.692;2023-01-29T09:03:47;99073.91;;;-1.84;83.20
61484;BME280;47349;55.640;37.692;2023-01-29T09:06:17;99074.00;;;-1.85;82.07
61484;BME280;47349;55.640;37.692;2023-01-29T09:08:44;99072.34;;;-1.86;83.04
61484;BME280;47349;55.640;37.692;2023-01-29T09:11:11;99074.28;;;-1.77;82.78
61484;BME280;47349;55.640;37.692;2023-01-29T09:13:39;99071.06;;;-1.69;82.33
61484;BME280;47349;55.640;37.692;2023-01-29T09:16:06;99065.94;;;-1.71;82.38
61484;BME280;47349;55.640;37.692;2023-01-29T09:18:35;99059.06;;;-1.61;82.47
61484;BME280;47349;55.640;37.692;2023-01-29T09:21:02;99070.06;;;-1.56;82.21
61484;BME280;47349;55.640;37.692;2023-01-29T09:23:30;99069.22;;;-1.56;81.42
61484;BME280;47349;55.640;37.692;2023-01-29T09:25:57;99069.13;;;-1.54;81.92
61484;BME280;47349;55.640;37.692;2023-01-29T09:28:24;99063.88;;;-1.54;81.83
61484;BME280;47349;55.640;37.692;2023-01-29T09:30:51;99067.78;;;-1.60;81.39
61484;BME280;47349;55.640;37.692;2023-01-29T09:33:19;99070.97;;;-1.68;81.34
61484;BME280;47349;55.640;37.692;2023-01-29T09:35:51;99052.81;;;-1.71;80.98
61484;BME280;47349;55.640;37.692;2023-01-29T09:38:20;99043.94;;;-1.81;80.67
61484;BME280;47349;55.640;37.692;2023-01-29T09:44:01;99036.34;;;-1.97;80.40
61484;BME280;47349;55.640;37.692;2023-01-29T09:46:34;99034.59;;;-1.85;81.35
61484;BME280;47349;55.640;37.692;2023-01-29T09:51:42;99027.97;;;-1.78;80.28
61484;BME280;47349;55.640;37.692;2023-01-29T09:54:16;99017.31;;;-1.88;79.84
61484;BME280;47349;55.640;37.692;2023-01-29T09:56:45;99016.84;;;-1.82;80.80
61484;BME280;47349;55.640;37.692;2023-01-29T09:59:12;99022.66;;;-1.89;79.68
61484;BME280;47349;55.640;37.692;2023-01-29T10:01:46;99020.69;;;-1.98;79.57
61484;BME280;47349;55.640;37.692;2023-01-29T10:04:20;99023.69;;;-2.03;80.90
61484;BME280;47349;55.640;37.692;2023-01-29T10:25:39;98984.81;;;-1.87;81.14
61484;BME280;47349;55.640;37.692;2023-01-29T10:28:16;98974.81;;;-1.82;81.44
61484;BME280;47349;55.640;37.692;2023-01-29T10:30:48;98960.59;;;-1.79;80.99
61484;BME280;47349;55.640;37.692;2023-01-29T10:33:17;98956.91;;;-1.76;80.59
61484;BME280;47349;55.640;37.692;2023-01-29T10:35:49;98943.44;;;-1.72;80.69
61484;BME280;47349;55.640;37.692;2023-01-29T10:38:34;98940.09;;;-1.74;80.03
61484;BME280;47349;55.640;37.692;2023-01-29T10:46:41;98935.81;;;-1.64;79.92
61484;BME280;47349;55.640;37.692;2023-01-29T10:49:18;98920.06;;;-1.64;79.25
61484;BME280;47349;55.640;37.692;2023-01-29T10:59:48;98906.09;;;-1.64;80.21
61484;BME280;47349;55.640;37.692;2023-01-29T11:02:19;98913.34;;;-1.68;79.50
61484;BME280;47349;55.640;37.692;2023-01-29T11:04:47;98911.78;;;-1.70;79.78
61484;BME280;47349;55.640;37.692;2023-01-29T11:07:15;98908.31;;;-1.71;79.41
61484;BME280;47349;55.640;37.692;2023-01-29T11:12:26;98899.59;;;-1.83;79.85
61484;BME280;47349;55.640;37.692;2023-01-29T11:17:24;98896.34;;;-1.97;80.38
61484;BME280;47349;55.640;37.692;2023-01-29T11:19:52;98888.13;;;-1.93;80.80
61484;BME280;47349;55.640;37.692;2023-01-29T11:22:26;98879.91;;;-1.88;81.33
61484;BME280;47349;55.640;37.692;2023-01-29T11:25:07;98884.91;;;-1.85;81.30
61484;BME280;47349;55.640;37.692;2023-01-29T11:28:15;98881.56;;;-1.87;80.29
61484;BME280;47349;55.640;37.692;2023-01-29T11:30:42;98880.13;;;-1.91;80.48
61484;BME280;47349;55.640;37.692;2023-01-29T11:33:18;98888.00;;;-1.91;80.62
61484;BME280;47349;55.640;37.692;2023-01-29T11:42:49;98885.72;;;-1.85;81.90
61484;BME280;47349;55.640;37.692;2023-01-29T11:46:18;98871.06;;;-1.65;81.94
61484;BME280;47349;55.640;37.692;2023-01-29T11:52:02;98872.28;;;-1.69;81.64
61484;BME280;47349;55.640;37.692;2023-01-29T11:54:31;98867.13;;;-1.70;81.16
61484;BME280;47349;55.640;37.692;2023-01-29T11:57:03;98867.69;;;-1.89;80.33
61484;BME280;47349;55.640;37.692;2023-01-29T12:02:13;98867.59;;;-1.88;81.44
61484;BME280;47349;55.640;37.692;2023-01-29T12:04:44;98867.13;;;-1.93;80.88
61484;BME280;47349;55.640;37.692;2023-01-29T12:07:13;98865.56;;;-1.95;81.73
61484;BME280;47349;55.640;37.692;2023-01-29T12:09:47;98871.06;;;-1.87;82.23
61484;BME280;47349;55.640;37.692;2023-01-29T12:15:01;98854.59;;;-1.78;80.93
61484;BME280;47349;55.640;37.692;2023-01-29T12:17:28;98852.69;;;-1.76;81.24
61484;BME280;47349;55.640;37.692;2023-01-29T12:19:58;98846.94;;;-1.70;81.53
61484;BME280;47349;55.640;37.692;2023-01-29T12:22:49;98852.19;;;-1.70;81.33
61484;BME280;47349;55.640;37.692;2023-01-29T12:25:23;98854.59;;;-1.67;81.79
61484;BME280;47349;55.640;37.692;2023-01-29T12:30:26;98846.59;;;-1.54;81.60
61484;BME280;47349;55.640;37.692;2023-01-29T12:33:42;98838.13;;;-1.69;81.23
61484;BME280;47349;55.640;37.692;2023-01-29T12:38:48;98849.56;;;-1.81;81.71
61484;BME280;47349;55.640;37.692;2023-01-29T12:41:51;98847.78;;;-1.92;81.36
61484;BME280;47349;55.640;37.692;2023-01-29T12:46:46;98841.34;;;-1.88;82.20
61484;BME280;47349;55.640;37.692;2023-01-29T12:49:22;98844.81;;;-1.87;82.42
61484;BME280;47349;55.640;37.692;2023-01-29T12:51:52;98844.31;;;-1.81;82.73
61484;BME280;47349;55.640;37.692;2023-01-29T12:54:26;98839.78;;;-1.79;82.83
61484;BME280;47349;55.640;37.692;2023-01-29T12:56:58;98844.53;;;-1.84;82.92
61484;BME280;47349;55.640;37.692;2023-01-29T12:59:30;98842.19;;;-1.87;83.27
61484;BME280;47349;55.640;37.692;2023-01-29T13:04:51;98848.13;;;-2.08;83.57
61484;BME280;47349;55.640;37.692;2023-01-29T13:07:27;98841.16;;;-2.09;84.99
61484;BME280;47349;55.640;37.692;2023-01-29T13:10:00;98849.19;;;-2.10;84.46
61484;BME280;47349;55.640;37.692;2023-01-29T13:12:30;98843.09;;;-2.11;84.45
61484;BME280;47349;55.640;37.692;2023-01-29T13:14:59;98853.13;;;-2.04;85.56
61484;BME280;47349;55.640;37.692;2023-01-29T13:17:34;98835.47;;;-2.02;85.32
61484;BME280;47349;55.640;37.692;2023-01-29T13:20:48;98837.63;;;-2.08;84.66
61484;BME280;47349;55.640;37.692;2023-01-29T13:22:50;98845.97;;;-2.02;85.30
61484;BME280;47349;55.640;37.692;2023-01-29T13:25:19;98838.34;;;-1.94;85.63
61484;BME280;47349;55.640;37.692;2023-01-29T13:27:46;98837.97;;;-1.90;84.66
61484;BME280;47349;55.640;37.692;2023-01-29T13:30:27;98830.22;;;-1.91;85.10
61484;BME280;47349;55.640;37.692;2023-01-29T13:32:55;98820.31;;;-1.99;84.53
61484;BME280;47349;55.640;37.692;2023-01-29T13:35:37;98825.69;;;-2.00;84.60
61484;BME280;47349;55.640;37.692;2023-01-29T13:38:05;98821.00;;;-2.08;84.55
61484;BME280;47349;55.640;37.692;2023-01-29T13:40:47;98821.00;;;-2.08;85.07
61484;BME280;47349;55.640;37.692;2023-01-29T13:43:21;98835.91;;;-2.09;84.70
61484;BME280;47349;55.640;37.692;2023-01-29T13:45:50;98827.13;;;-2.08;85.16
61484;BME280;47349;55.640;37.692;2023-01-29T13:48:28;98822.09;;;-1.99;85.85
61484;BME280;47349;55.640;37.692;2023-01-29T13:51:02;98822.34;;;-1.91;86.21
61484;BME280;47349;55.640;37.692;2023-01-29T13:53:39;98811.38;;;-1.85;86.03
61484;BME280;47349;55.640;37.692;2023-01-29T13:56:27;98803.50;;;-1.96;85.15
61484;BME280;47349;55.640;37.692;2023-01-29T13:58:56;98812.56;;;-2.00;85.46
61484;BME280;47349;55.640;37.692;2023-01-29T14:06:45;98809.84;;;-1.88;85.55
61484;BME280;47349;55.640;37.692;2023-01-29T14:10:16;98807.78;;;-1.95;85.49
61484;BME280;47349;55.640;37.692;2023-01-29T14:17:25;98816.41;;;-1.93;85.77
61484;BME280;47349;55.640;37.692;2023-01-29T14:19:59;98803.00;;;-2.01;85.85
61484;BME280;47349;55.640;37.692;2023-01-29T14:22:28;98794.88;;;-1.98;86.52
61484;BME280;47349;55.640;37.692;2023-01-29T14:25:00;98792.72;;;-2.04;86.06
61484;BME280;47349;55.640;37.692;2023-01-29T14:27:32;98782.22;;;-2.04;86.35
61484;BME280;47349;55.640;37.692;2023-01-29T14:30:12;98784.25;;;-2.08;86.15
61484;BME280;47349;55.640;37.692;2023-01-29T14:32:40;98777.81;;;-2.15;86.26
61484;BME280;47349;55.640;37.692;2023-01-29T14:35:27;98791.06;;;-2.17;86.85
61484;BME280;47349;55.640;37.692;2023-01-29T14:38:01;98781.06;;;-2.12;87.97
61484;BME280;47349;55.640;37.692;2023-01-29T14:40:31;98786.78;;;-2.07;87.65
61484;BME280;47349;55.640;37.692;2023-01-29T14:45:36;98783.31;;;-2.07;87.71
61484;BME280;47349;55.640;37.692;2023-01-29T14:50:38;98788.66;;;-2.09;87.53
61484;BME280;47349;55.640;37.692;2023-01-29T14:53:11;98785.34;;;-2.11;87.36
61484;BME280;47349;55.640;37.692;2023-01-29T14:58:25;98785.34;;;-2.11;88.05
61484;BME280;47349;55.640;37.692;2023-01-29T15:00:54;98782.34;;;-2.06;88.10
61484;BME280;47349;55.640;37.692;2023-01-29T15:03:27;98774.47;;;-2.06;88.18
61484;BME280;47349;55.640;37.692;2023-01-29T15:05:57;98776.75;;;-2.13;88.15
61484;BME280;47349;55.640;37.692;2023-01-29T15:08:37;98779.59;;;-2.16;87.99
61484;BME280;47349;55.640;37.692;2023-01-29T15:11:24;98776.50;;;-2.10;88.58
61484;BME280;47349;55.640;37.692;2023-01-29T15:14:13;98781.88;;;-2.11;88.26
61484;BME280;47349;55.640;37.692;2023-01-29T15:19:44;98776.28;;;-2.07;88.39
61484;BME280;47349;55.640;37.692;2023-01-29T15:22:12;98784.03;;;-2.05;88.80